createdAt,value
2019-03-22T00:00:20.504Z,6.73
2019-03-22T00:01:20.503Z,6.71
2019-03-22T00:02:20.504Z,6.59
2019-03-22T00:03:20.498Z,6.66
2019-03-22T00:04:20.464Z,6.72
2019-03-22T00:05:20.468Z,6.66
2019-03-22T00:06:20.439Z,6.56
2019-03-22T00:07:20.440Z,6.58
2019-03-22T00:08:20.435Z,6.65
2019-03-22T00:09:20.411Z,6.58
2019-03-22T00:10:20.403Z,6.58
2019-03-22T00:11:20.391Z,6.59
2019-03-22T00:12:20.377Z,6.51
2019-03-22T00:13:20.399Z,6.61
2019-03-22T00:14:20.356Z,6.58
2019-03-22T00:15:20.344Z,6.54
2019-03-22T00:16:20.335Z,6.44
2019-03-22T00:17:20.320Z,6.43
2019-03-22T00:18:20.309Z,6.46
2019-03-22T00:19:20.321Z,6.51
2019-03-22T00:20:20.287Z,6.40
2019-03-22T00:21:20.286Z,6.36
2019-03-22T00:22:20.274Z,6.38
2019-03-22T00:23:20.282Z,6.36
2019-03-22T00:24:20.270Z,6.36
2019-03-22T00:25:20.237Z,6.47
2019-03-22T00:26:20.225Z,6.43
2019-03-22T00:27:20.219Z,6.38
2019-03-22T00:28:20.223Z,6.38
2019-03-22T00:29:20.221Z,6.35
2019-03-22T00:30:20.187Z,6.29
2019-03-22T00:31:20.243Z,6.30
2019-03-22T00:32:20.197Z,6.28
2019-03-22T00:33:20.157Z,6.25
2019-03-22T00:34:20.173Z,6.18
2019-03-22T00:35:20.131Z,6.26
2019-03-22T00:36:20.118Z,6.25
2019-03-22T00:37:20.114Z,6.29
2019-03-22T00:38:20.099Z,6.21
2019-03-22T00:39:20.097Z,6.19
2019-03-22T00:40:20.095Z,6.19
2019-03-22T00:41:20.097Z,6.18
2019-03-22T00:42:20.055Z,6.10
2019-03-22T00:43:20.042Z,6.10
2019-03-22T00:44:20.041Z,6.14
2019-03-22T00:45:20.051Z,6.13
2019-03-22T00:46:20.015Z,6.01
2019-03-22T00:47:20.000Z,6.06
2019-03-22T00:48:19.996Z,6.13
2019-03-22T00:49:19.985Z,5.96
2019-03-22T00:50:19.991Z,6.04
2019-03-22T00:51:19.962Z,6.06
2019-03-22T00:52:19.975Z,6.06
2019-03-22T00:53:19.936Z,6.06
2019-03-22T00:54:19.931Z,6.04
2019-03-22T00:55:19.946Z,6.04
2019-03-22T00:56:19.912Z,6.00
2019-03-22T00:57:28.105Z,5.96
2019-03-22T00:58:20.884Z,5.92
2019-03-22T00:59:19.874Z,5.96
2019-03-22T01:00:19.869Z,5.91
2019-03-22T01:01:19.876Z,5.95
2019-03-22T01:02:19.835Z,5.92
2019-03-22T01:03:19.826Z,5.91
2019-03-22T01:04:19.820Z,5.93
2019-03-22T01:05:19.807Z,5.93
2019-03-22T01:06:19.816Z,5.98
2019-03-22T01:07:19.797Z,5.92
2019-03-22T01:08:19.778Z,5.92
2019-03-22T01:09:19.768Z,5.93
2019-03-22T01:10:19.753Z,5.91
2019-03-22T01:11:19.761Z,5.95
2019-03-22T01:12:19.738Z,5.92
2019-03-22T01:13:19.757Z,5.93
2019-03-22T01:14:19.718Z,5.86
2019-03-22T01:15:19.706Z,5.83
2019-03-22T01:16:19.719Z,5.81
2019-03-22T01:17:19.684Z,5.83
2019-03-22T01:18:19.688Z,5.83
2019-03-22T01:19:19.667Z,5.77
2019-03-22T01:20:19.652Z,5.75
2019-03-22T01:21:19.676Z,5.81
2019-03-22T01:22:19.637Z,5.75
2019-03-22T01:23:19.661Z,5.67
2019-03-22T01:24:19.618Z,5.63
2019-03-22T01:25:19.606Z,5.64
2019-03-22T01:26:19.627Z,5.63
2019-03-22T01:27:19.573Z,5.63
2019-03-22T01:28:19.574Z,5.64
2019-03-22T01:29:19.562Z,5.64
2019-03-22T01:30:19.542Z,5.64
2019-03-22T01:31:19.532Z,5.70
2019-03-22T01:32:19.551Z,5.60
2019-03-22T01:33:19.521Z,5.60
2019-03-22T01:34:19.515Z,5.53
2019-03-22T01:35:19.500Z,5.53
2019-03-22T01:36:19.485Z,5.49
2019-03-22T01:37:19.490Z,5.37
2019-03-22T01:38:19.454Z,5.38
2019-03-22T01:39:19.447Z,5.27
2019-03-22T01:40:19.436Z,5.38
2019-03-22T01:41:19.437Z,5.28
2019-03-22T01:42:21.151Z,5.31
2019-03-22T01:43:19.410Z,5.28
2019-03-22T01:44:19.391Z,5.37
2019-03-22T01:45:19.381Z,5.30
2019-03-22T01:46:19.371Z,5.30
2019-03-22T01:47:19.380Z,5.31
2019-03-22T01:48:19.350Z,5.32
2019-03-22T01:49:19.352Z,5.32
2019-03-22T01:50:19.333Z,5.37
2019-03-22T01:51:19.316Z,5.28
2019-03-22T01:52:19.652Z,5.34
2019-03-22T01:53:19.297Z,5.31
2019-03-22T01:54:19.295Z,5.27
2019-03-22T01:55:19.277Z,5.31
2019-03-22T01:56:19.264Z,5.27
2019-03-22T01:57:19.295Z,5.27
2019-03-22T01:58:19.249Z,5.28
2019-03-22T01:59:19.230Z,5.31
2019-03-22T02:00:19.226Z,5.28
2019-03-22T02:01:19.211Z,5.28
2019-03-22T02:02:19.206Z,5.27
2019-03-22T02:03:19.209Z,5.28
2019-03-22T02:04:19.180Z,5.27
2019-03-22T02:05:19.175Z,5.32
2019-03-22T02:06:19.159Z,5.19
2019-03-22T02:07:19.152Z,5.16
2019-03-22T02:08:19.153Z,5.19
2019-03-22T02:09:19.122Z,5.20
2019-03-22T02:10:19.120Z,5.14
2019-03-22T02:11:19.105Z,5.19
2019-03-22T02:12:19.095Z,5.22
2019-03-22T02:13:20.874Z,5.12
2019-03-22T02:14:19.069Z,5.20
2019-03-22T02:15:19.058Z,5.20
2019-03-22T02:16:19.051Z,5.16
2019-03-22T02:17:19.042Z,5.14
2019-03-22T02:18:19.053Z,5.19
2019-03-22T02:19:19.022Z,5.22
2019-03-22T02:20:19.009Z,5.14
2019-03-22T02:21:18.998Z,5.10
2019-03-22T02:22:18.993Z,5.10
2019-03-22T02:23:27.091Z,5.04
2019-03-22T02:24:18.986Z,5.10
2019-03-22T02:25:18.960Z,5.09
2019-03-22T02:26:18.949Z,5.09
2019-03-22T02:27:18.943Z,5.01
2019-03-22T02:28:18.930Z,5.02
2019-03-22T02:29:18.942Z,5.01
2019-03-22T02:30:18.936Z,5.05
2019-03-22T02:31:18.895Z,5.04
2019-03-22T02:32:18.901Z,4.99
2019-03-22T02:33:18.905Z,4.98
2019-03-22T02:34:18.862Z,4.94
2019-03-22T02:35:28.414Z,5.02
2019-03-22T02:36:19.835Z,4.95
2019-03-22T02:37:18.828Z,4.98
2019-03-22T02:38:18.838Z,4.94
2019-03-22T02:39:18.857Z,4.95
2019-03-22T02:40:18.800Z,4.94
2019-03-22T02:41:18.789Z,4.94
2019-03-22T02:42:18.787Z,4.98
2019-03-22T02:43:19.694Z,4.84
2019-03-22T02:44:18.763Z,4.88
2019-03-22T02:45:18.741Z,4.83
2019-03-22T02:46:18.730Z,4.84
2019-03-22T02:47:18.750Z,4.86
2019-03-22T02:48:18.726Z,4.77
2019-03-22T02:49:18.702Z,4.76
2019-03-22T02:50:20.006Z,4.76
2019-03-22T02:51:18.686Z,4.77
2019-03-22T02:52:18.670Z,4.75
2019-03-22T02:53:20.183Z,4.79
2019-03-22T02:54:18.644Z,4.76
2019-03-22T02:55:18.652Z,4.76
2019-03-22T02:56:18.677Z,4.76
2019-03-22T02:57:18.618Z,4.65
2019-03-22T02:58:20.908Z,4.77
2019-03-22T02:59:18.591Z,4.64
2019-03-22T03:00:18.580Z,4.70
2019-03-22T03:01:18.575Z,4.67
2019-03-22T03:02:18.564Z,4.67
2019-03-22T03:03:18.574Z,4.67
2019-03-22T03:04:18.542Z,4.70
2019-03-22T03:05:18.565Z,4.69
2019-03-22T03:06:18.519Z,4.72
2019-03-22T03:07:18.525Z,4.62
2019-03-22T03:08:18.520Z,4.67
2019-03-22T03:09:18.490Z,4.67
2019-03-22T03:10:18.504Z,4.58
2019-03-22T03:11:18.467Z,4.64
2019-03-22T03:12:18.455Z,4.62
2019-03-22T03:13:18.449Z,4.61
2019-03-22T03:14:18.453Z,4.65
2019-03-22T03:15:18.448Z,4.61
2019-03-22T03:16:18.428Z,4.59
2019-03-22T03:17:18.407Z,4.55
2019-03-22T03:18:18.393Z,4.61
2019-03-22T03:19:18.406Z,4.54
2019-03-22T03:20:18.373Z,4.54
2019-03-22T03:21:18.359Z,4.54
2019-03-22T03:22:18.352Z,4.54
2019-03-22T03:23:18.360Z,4.52
2019-03-22T03:24:18.328Z,4.52
2019-03-22T03:25:18.318Z,4.51
2019-03-22T03:26:18.308Z,4.55
2019-03-22T03:27:18.297Z,4.52
2019-03-22T03:28:18.317Z,4.52
2019-03-22T03:29:18.274Z,4.47
2019-03-22T03:30:18.311Z,4.50
2019-03-22T03:31:18.261Z,4.51
2019-03-22T03:32:18.250Z,4.52
2019-03-22T03:33:18.233Z,4.57
2019-03-22T03:34:18.249Z,4.46
2019-03-22T03:35:18.227Z,4.42
2019-03-22T03:36:18.198Z,4.40
2019-03-22T03:37:18.187Z,4.44
2019-03-22T03:38:18.182Z,4.39
2019-03-22T03:39:18.189Z,4.43
2019-03-22T03:40:18.175Z,4.40
2019-03-22T03:41:18.144Z,4.46
2019-03-22T03:42:18.143Z,4.37
2019-03-22T03:43:18.159Z,4.36
2019-03-22T03:44:18.135Z,4.36
2019-03-22T03:45:18.102Z,4.39
2019-03-22T03:46:18.091Z,4.32
2019-03-22T03:47:18.106Z,4.37
2019-03-22T03:48:18.067Z,4.33
2019-03-22T03:49:18.104Z,4.26
2019-03-22T03:50:18.064Z,4.29
2019-03-22T03:51:18.042Z,4.32
2019-03-22T03:52:18.031Z,4.24
2019-03-22T03:53:18.019Z,4.21
2019-03-22T03:54:18.026Z,4.24
2019-03-22T03:55:17.993Z,4.25
2019-03-22T03:56:17.982Z,4.29
2019-03-22T03:57:17.973Z,4.22
2019-03-22T03:58:17.960Z,4.16
2019-03-22T03:59:17.970Z,4.22
2019-03-22T04:00:17.939Z,4.25
2019-03-22T04:01:17.930Z,4.22
2019-03-22T04:02:17.917Z,4.25
2019-03-22T04:03:17.907Z,4.21
2019-03-22T04:04:17.915Z,4.19
2019-03-22T04:05:17.884Z,4.32
2019-03-22T04:06:17.873Z,4.26
2019-03-22T04:07:17.869Z,4.19
2019-03-22T04:08:17.900Z,4.19
2019-03-22T04:09:17.869Z,4.15
2019-03-22T04:10:17.835Z,4.22
2019-03-22T04:11:17.899Z,4.19
2019-03-22T04:12:17.830Z,4.21
2019-03-22T04:13:17.808Z,4.16
2019-03-22T04:14:17.788Z,4.06
2019-03-22T04:15:17.803Z,4.07
2019-03-22T04:16:17.764Z,4.07
2019-03-22T04:17:17.761Z,4.10
2019-03-22T04:18:17.744Z,4.15
2019-03-22T04:19:17.744Z,4.03
2019-03-22T04:20:17.741Z,4.08
2019-03-22T04:21:17.709Z,4.00
2019-03-22T04:22:17.700Z,4.14
2019-03-22T04:23:17.750Z,4.08
2019-03-22T04:24:17.679Z,4.08
2019-03-22T04:25:17.692Z,4.03
2019-03-22T04:26:17.778Z,4.01
2019-03-22T04:27:17.646Z,4.04
2019-03-22T04:28:17.638Z,3.86
2019-03-22T04:29:17.640Z,4.01
2019-03-22T04:30:17.612Z,3.98
2019-03-22T04:31:17.626Z,3.96
2019-03-22T04:32:17.593Z,3.96
2019-03-22T04:33:17.579Z,3.92
2019-03-22T04:34:17.570Z,3.86
2019-03-22T04:35:17.559Z,3.82
2019-03-22T04:36:17.564Z,3.83
2019-03-22T04:37:17.535Z,3.79
2019-03-22T04:38:17.525Z,3.78
2019-03-22T04:39:17.513Z,3.88
2019-03-22T04:40:17.516Z,3.86
2019-03-22T04:41:17.514Z,3.85
2019-03-22T04:42:17.487Z,3.83
2019-03-22T04:43:17.470Z,3.83
2019-03-22T04:44:17.466Z,3.83
2019-03-22T04:45:17.448Z,3.80
2019-03-22T04:46:17.457Z,3.86
2019-03-22T04:47:17.431Z,3.82
2019-03-22T04:48:17.419Z,3.82
2019-03-22T04:49:17.426Z,3.82
2019-03-22T04:50:17.393Z,3.85
2019-03-22T04:51:17.420Z,3.88
2019-03-22T04:52:17.370Z,3.82
2019-03-22T04:53:17.362Z,3.76
2019-03-22T04:54:17.350Z,3.75
2019-03-22T04:55:17.340Z,3.71
2019-03-22T04:56:17.347Z,3.75
2019-03-22T04:57:17.322Z,3.76
2019-03-22T04:58:17.310Z,3.80
2019-03-22T04:59:19.257Z,3.80
2019-03-22T05:00:17.289Z,3.82
2019-03-22T05:01:17.314Z,3.71
2019-03-22T05:02:17.269Z,3.75
2019-03-22T05:03:17.251Z,3.71
2019-03-22T05:04:17.243Z,3.78
2019-03-22T05:05:17.232Z,3.70
2019-03-22T05:06:17.223Z,3.76
2019-03-22T05:07:17.229Z,3.70
2019-03-22T05:08:17.207Z,3.68
2019-03-22T05:09:17.184Z,3.68
2019-03-22T05:10:17.224Z,3.65
2019-03-22T05:11:17.168Z,3.65
2019-03-22T05:12:17.171Z,3.70
2019-03-22T05:13:17.185Z,3.62
2019-03-22T05:14:17.134Z,3.64
2019-03-22T05:15:17.124Z,3.61
2019-03-22T05:16:17.117Z,3.58
2019-03-22T05:17:17.125Z,3.62
2019-03-22T05:18:17.090Z,3.65
2019-03-22T05:19:17.083Z,3.70
2019-03-22T05:20:17.074Z,3.65
2019-03-22T05:21:17.058Z,3.70
2019-03-22T05:22:17.065Z,3.61
2019-03-22T05:23:17.032Z,3.64
2019-03-22T05:24:18.336Z,3.64
2019-03-22T05:25:17.013Z,3.50
2019-03-22T05:26:17.019Z,3.54
2019-03-22T05:27:17.007Z,3.52
2019-03-22T05:28:16.981Z,3.54
2019-03-22T05:29:16.971Z,3.62
2019-03-22T05:30:16.959Z,3.49
2019-03-22T05:31:16.947Z,3.50
2019-03-22T05:32:16.962Z,3.52
2019-03-22T05:33:16.928Z,3.52
2019-03-22T05:34:16.919Z,3.53
2019-03-22T05:35:16.922Z,3.53
2019-03-22T05:36:16.895Z,3.44
2019-03-22T05:37:16.899Z,3.50
2019-03-22T05:38:16.873Z,3.44
2019-03-22T05:39:16.860Z,3.42
2019-03-22T05:40:16.846Z,3.43
2019-03-22T05:41:16.839Z,3.47
2019-03-22T05:42:16.830Z,3.33
2019-03-22T05:43:16.841Z,3.36
2019-03-22T05:44:16.808Z,3.36
2019-03-22T05:45:16.798Z,3.31
2019-03-22T05:46:16.792Z,3.18
2019-03-22T05:47:16.773Z,3.36
2019-03-22T05:48:16.780Z,3.31
2019-03-22T05:49:16.758Z,3.33
2019-03-22T05:50:16.739Z,3.39
2019-03-22T05:51:16.735Z,3.44
2019-03-22T05:52:16.719Z,3.52
2019-03-22T05:53:16.737Z,3.71
2019-03-22T05:54:16.699Z,3.70
2019-03-22T05:55:16.691Z,3.79
2019-03-22T05:56:16.677Z,3.88
2019-03-22T05:57:16.663Z,3.92
2019-03-22T05:58:16.674Z,4.00
2019-03-22T05:59:16.651Z,4.07
2019-03-22T06:00:16.629Z,4.15
2019-03-22T06:01:16.617Z,4.22
2019-03-22T06:02:16.608Z,4.10
2019-03-22T06:03:16.648Z,4.33
2019-03-22T06:04:16.589Z,4.32
2019-03-22T06:05:16.577Z,4.39
2019-03-22T06:06:16.563Z,4.37
2019-03-22T06:07:16.552Z,4.47
2019-03-22T06:08:16.543Z,4.46
2019-03-22T06:09:16.556Z,4.50
2019-03-22T06:10:16.546Z,4.57
2019-03-22T06:11:16.510Z,4.51
2019-03-22T06:12:16.501Z,4.55
2019-03-22T06:13:16.538Z,4.50
2019-03-22T06:14:16.508Z,4.52
2019-03-22T06:15:16.469Z,4.37
2019-03-22T06:16:16.459Z,4.32
2019-03-22T06:17:16.450Z,4.36
2019-03-22T06:18:16.433Z,4.32
2019-03-22T06:19:16.460Z,4.26
2019-03-22T06:20:16.416Z,4.32
2019-03-22T06:21:16.415Z,4.32
2019-03-22T06:22:16.420Z,4.24
2019-03-22T06:23:16.389Z,4.25
2019-03-22T06:24:16.391Z,4.32
2019-03-22T06:25:16.364Z,4.29
2019-03-22T06:26:16.378Z,4.28
2019-03-22T06:27:16.349Z,4.29
2019-03-22T06:28:16.333Z,4.26
2019-03-22T06:29:16.337Z,4.25
2019-03-22T06:30:16.305Z,4.29
2019-03-22T06:31:16.304Z,4.29
2019-03-22T06:32:16.313Z,4.25
2019-03-22T06:33:16.275Z,4.28
2019-03-22T06:34:16.308Z,4.33
2019-03-22T06:35:16.250Z,4.36
2019-03-22T06:36:16.256Z,4.26
2019-03-22T06:37:16.235Z,4.33
2019-03-22T06:38:16.227Z,4.52
2019-03-22T06:39:16.207Z,4.52
2019-03-22T06:40:16.233Z,4.57
2019-03-22T06:41:16.200Z,4.67
2019-03-22T06:42:16.188Z,4.76
2019-03-22T06:43:16.173Z,4.75
2019-03-22T06:44:16.157Z,4.86
2019-03-22T06:45:16.166Z,4.95
2019-03-22T06:46:16.165Z,4.99
2019-03-22T06:47:16.122Z,5.19
2019-03-22T06:48:16.111Z,5.27
2019-03-22T06:49:16.113Z,5.17
2019-03-22T06:50:16.119Z,5.32
2019-03-22T06:51:16.079Z,5.32
2019-03-22T06:52:16.067Z,5.37
2019-03-22T06:53:16.079Z,5.40
2019-03-22T06:54:16.055Z,5.41
2019-03-22T06:55:16.082Z,5.60
2019-03-22T06:56:16.035Z,5.53
2019-03-22T06:57:16.051Z,5.52
2019-03-22T06:58:15.999Z,5.56
2019-03-22T06:59:15.988Z,5.60
2019-03-22T07:00:15.996Z,5.53
2019-03-22T07:01:15.969Z,5.64
2019-03-22T07:02:15.970Z,5.57
2019-03-22T07:03:15.984Z,5.53
2019-03-22T07:04:15.938Z,5.59
2019-03-22T07:05:15.948Z,5.64
2019-03-22T07:06:15.916Z,5.64
2019-03-22T07:07:15.906Z,5.64
2019-03-22T07:08:15.891Z,5.66
2019-03-22T07:09:15.881Z,5.63
2019-03-22T07:10:15.870Z,5.74
2019-03-22T07:11:15.881Z,5.60
2019-03-22T07:12:15.856Z,5.67
2019-03-22T07:13:15.846Z,5.68
2019-03-22T07:14:15.825Z,5.81
2019-03-22T07:15:15.816Z,5.71
2019-03-22T07:16:15.837Z,5.83
2019-03-22T07:17:15.801Z,5.78
2019-03-22T07:18:15.782Z,5.81
2019-03-22T07:19:15.801Z,5.82
2019-03-22T07:20:15.764Z,5.88
2019-03-22T07:21:15.762Z,5.92
2019-03-22T07:22:15.735Z,6.06
2019-03-22T07:23:15.729Z,6.04
2019-03-22T07:24:15.735Z,6.11
2019-03-22T07:25:15.720Z,6.19
2019-03-22T07:26:15.720Z,6.22
2019-03-22T07:27:15.686Z,6.32
2019-03-22T07:28:15.674Z,6.25
2019-03-22T07:29:15.667Z,6.22
2019-03-22T07:30:18.892Z,6.29
2019-03-22T07:31:15.653Z,6.25
2019-03-22T07:32:15.655Z,6.21
2019-03-22T07:33:15.647Z,6.22
2019-03-22T07:34:15.630Z,6.26
2019-03-22T07:35:15.607Z,6.26
2019-03-22T07:36:15.615Z,6.14
2019-03-22T07:37:15.601Z,6.16
2019-03-22T07:38:15.571Z,6.25
2019-03-22T07:39:15.563Z,6.19
2019-03-22T07:40:15.571Z,6.18
2019-03-22T07:41:15.537Z,6.25
2019-03-22T07:42:17.560Z,6.36
2019-03-22T07:43:15.516Z,6.36
2019-03-22T07:44:15.509Z,6.43
2019-03-22T07:45:15.520Z,6.41
2019-03-22T07:46:15.491Z,6.46
2019-03-22T07:47:15.488Z,6.58
2019-03-22T07:48:15.460Z,6.56
2019-03-22T07:49:15.450Z,6.61
2019-03-22T07:50:15.440Z,6.73
2019-03-22T07:51:15.428Z,6.73
2019-03-22T07:52:15.440Z,6.87
2019-03-22T07:53:15.415Z,6.79
2019-03-22T07:54:15.407Z,6.81
2019-03-22T07:55:15.384Z,6.76
2019-03-22T07:56:15.380Z,6.81
2019-03-22T07:57:15.391Z,6.80
2019-03-22T07:58:15.355Z,6.80
2019-03-22T07:59:15.352Z,6.80
2019-03-22T08:00:15.351Z,6.81
2019-03-22T08:01:15.324Z,6.95
2019-03-22T08:02:15.337Z,6.90
2019-03-22T08:03:15.305Z,6.98
2019-03-22T08:04:15.299Z,7.09
2019-03-22T08:05:15.279Z,7.22
2019-03-22T08:06:15.270Z,7.34
2019-03-22T08:07:15.259Z,7.49
2019-03-22T08:08:15.265Z,7.58
2019-03-22T08:09:15.247Z,7.67
2019-03-22T08:10:15.281Z,7.72
2019-03-22T08:11:15.259Z,7.72
2019-03-22T08:12:15.304Z,7.71
2019-03-22T08:13:15.201Z,7.81
2019-03-22T08:14:16.380Z,7.90
2019-03-22T08:15:15.186Z,7.94
2019-03-22T08:16:15.163Z,7.92
2019-03-22T08:17:15.214Z,7.99
2019-03-22T08:18:15.152Z,7.97
2019-03-22T08:19:15.236Z,7.92
2019-03-22T08:20:15.126Z,7.92
2019-03-22T08:21:15.150Z,7.97
2019-03-22T08:22:15.122Z,7.92
2019-03-22T08:23:15.137Z,7.85
2019-03-22T08:24:15.083Z,7.92
2019-03-22T08:25:15.095Z,7.92
2019-03-22T08:26:22.584Z,8.02
2019-03-22T08:27:15.075Z,8.07
2019-03-22T08:28:15.064Z,8.18
2019-03-22T08:29:15.037Z,8.22
2019-03-22T08:30:15.015Z,8.30
2019-03-22T08:31:15.004Z,8.37
2019-03-22T08:32:15.348Z,8.51
2019-03-22T08:33:15.017Z,8.53
2019-03-22T08:34:14.990Z,8.55
2019-03-22T08:35:15.007Z,8.65
2019-03-22T08:36:15.579Z,8.68
2019-03-22T08:37:14.973Z,8.84
2019-03-22T08:38:17.431Z,8.81
2019-03-22T08:39:14.942Z,8.81
2019-03-22T08:40:14.922Z,8.79
2019-03-22T08:41:14.960Z,8.81
2019-03-22T08:42:14.908Z,8.84
2019-03-22T08:43:14.896Z,8.88
2019-03-22T08:44:14.971Z,8.90
2019-03-22T08:45:14.851Z,8.86
2019-03-22T08:46:14.868Z,8.99
2019-03-22T08:47:14.844Z,9.04
2019-03-22T08:48:14.870Z,9.01
2019-03-22T08:49:14.956Z,9.13
2019-03-22T08:50:14.847Z,9.18
2019-03-22T08:51:14.801Z,9.23
2019-03-22T08:52:14.819Z,9.28
2019-03-22T08:53:14.766Z,9.34
2019-03-22T08:54:14.788Z,9.38
2019-03-22T08:55:14.744Z,9.46
2019-03-22T08:56:14.737Z,9.50
2019-03-22T08:57:14.743Z,9.68
2019-03-22T08:58:14.715Z,9.78
2019-03-22T08:59:14.754Z,9.88
2019-03-22T09:00:14.691Z,9.94
2019-03-22T09:01:14.681Z,10.09
2019-03-22T09:02:14.673Z,10.10
2019-03-22T09:03:14.663Z,10.26
2019-03-22T09:04:14.813Z,10.30
2019-03-22T09:05:14.639Z,10.42
2019-03-22T09:06:14.627Z,10.43
2019-03-22T09:07:14.644Z,10.51
2019-03-22T09:08:16.061Z,10.55
2019-03-22T09:09:14.688Z,10.62
2019-03-22T09:10:14.597Z,10.71
2019-03-22T09:11:14.614Z,10.70
2019-03-22T09:12:14.563Z,10.78
2019-03-22T09:13:14.558Z,10.81
2019-03-22T09:14:14.576Z,10.83
2019-03-22T09:15:14.529Z,10.91
2019-03-22T09:16:14.533Z,10.98
2019-03-22T09:17:14.511Z,10.98
2019-03-22T09:18:15.642Z,11.03
2019-03-22T09:19:14.488Z,11.06
2019-03-22T09:20:14.797Z,11.11
2019-03-22T09:21:14.475Z,11.11
2019-03-22T09:22:14.478Z,11.16
2019-03-22T09:23:14.471Z,11.20
2019-03-22T09:24:14.454Z,11.25
2019-03-22T09:25:14.438Z,11.38
2019-03-22T09:26:14.422Z,11.38
2019-03-22T09:27:14.450Z,11.47
2019-03-22T09:28:14.425Z,11.61
2019-03-22T09:29:14.378Z,11.67
2019-03-22T09:30:14.415Z,11.82
2019-03-22T09:31:14.380Z,11.87
2019-03-22T09:32:14.376Z,11.82
2019-03-22T09:33:14.388Z,11.93
2019-03-22T09:34:14.324Z,12.04
2019-03-22T09:35:14.391Z,12.12
2019-03-22T09:36:14.303Z,12.24
2019-03-22T09:37:14.295Z,12.37
2019-03-22T09:38:14.320Z,12.38
2019-03-22T09:39:14.273Z,12.46
2019-03-22T09:40:14.278Z,12.52
2019-03-22T09:41:14.297Z,12.60
2019-03-22T09:42:14.242Z,12.62
2019-03-22T09:43:14.246Z,12.79
2019-03-22T09:44:14.241Z,12.96
2019-03-22T09:45:14.565Z,12.89
2019-03-22T09:46:14.241Z,12.89
2019-03-22T09:47:16.451Z,12.92
2019-03-22T09:48:14.198Z,12.99
2019-03-22T09:49:14.169Z,13.00
2019-03-22T09:50:14.202Z,13.04
2019-03-22T09:51:14.159Z,13.14
2019-03-22T09:52:14.129Z,13.21
2019-03-22T09:53:14.142Z,13.30
2019-03-22T09:54:14.113Z,13.18
2019-03-22T09:55:14.625Z,13.30
2019-03-22T09:56:14.130Z,13.30
2019-03-22T09:57:14.095Z,13.46
2019-03-22T09:58:14.065Z,13.52
2019-03-22T09:59:14.059Z,13.62
2019-03-22T10:00:14.109Z,13.67
2019-03-22T10:01:23.585Z,13.70
2019-03-22T10:02:15.071Z,13.79
2019-03-22T10:03:14.059Z,13.89
2019-03-22T10:04:14.053Z,14.04
2019-03-22T10:05:14.102Z,14.06
2019-03-22T10:06:14.041Z,14.17
2019-03-22T10:07:14.003Z,14.24
2019-03-22T10:08:13.986Z,14.34
2019-03-22T10:09:13.952Z,14.42
2019-03-22T10:10:13.995Z,14.42
2019-03-22T10:11:13.997Z,14.56
2019-03-22T10:12:13.946Z,14.60
2019-03-22T10:13:13.933Z,14.64
2019-03-22T10:14:13.898Z,14.64
2019-03-22T10:15:13.914Z,14.67
2019-03-22T10:16:13.911Z,14.67
2019-03-22T10:17:13.895Z,14.78
2019-03-22T10:18:13.860Z,14.90
2019-03-22T10:19:13.896Z,14.95
2019-03-22T10:20:13.841Z,14.93
2019-03-22T10:21:22.277Z,14.99
2019-03-22T10:22:14.825Z,15.08
2019-03-22T10:23:13.818Z,15.03
2019-03-22T10:24:13.828Z,15.15
2019-03-22T10:25:13.848Z,15.13
2019-03-22T10:26:13.767Z,15.27
2019-03-22T10:27:13.775Z,15.28
2019-03-22T10:28:13.749Z,15.27
2019-03-22T10:29:13.758Z,15.43
2019-03-22T10:30:13.797Z,15.52
2019-03-22T10:31:13.711Z,15.49
2019-03-22T10:32:13.759Z,15.60
2019-03-22T10:33:22.566Z,15.75
2019-03-22T10:34:14.691Z,15.84
2019-03-22T10:35:25.324Z,15.86
2019-03-22T10:36:14.725Z,15.82
2019-03-22T10:37:13.645Z,15.89
2019-03-22T10:38:16.288Z,15.88
2019-03-22T10:39:13.624Z,15.82
2019-03-22T10:40:13.737Z,15.82
2019-03-22T10:41:13.640Z,15.84
2019-03-22T10:42:13.628Z,15.97
2019-03-22T10:43:13.631Z,15.96
2019-03-22T10:44:13.580Z,16.09
2019-03-22T10:45:13.573Z,16.22
2019-03-22T10:46:13.626Z,16.20
2019-03-22T10:47:13.545Z,16.26
2019-03-22T10:48:13.547Z,16.33
2019-03-22T10:49:13.527Z,16.25
2019-03-22T10:50:13.522Z,16.27
2019-03-22T10:51:13.644Z,16.49
2019-03-22T10:52:13.503Z,16.50
2019-03-22T10:53:13.496Z,16.50
2019-03-22T10:54:13.496Z,16.65
2019-03-22T10:55:28.954Z,16.63
2019-03-22T10:56:14.442Z,16.73
2019-03-22T10:57:13.430Z,16.78
2019-03-22T10:58:20.868Z,16.85
2019-03-22T10:59:14.409Z,16.92
2019-03-22T11:00:13.397Z,17.10
2019-03-22T11:01:13.410Z,17.11
2019-03-22T11:02:13.373Z,17.08
2019-03-22T11:03:13.384Z,17.17
2019-03-22T11:04:13.369Z,17.17
2019-03-22T11:05:13.344Z,17.18
2019-03-22T11:06:13.330Z,17.26
2019-03-22T11:07:13.319Z,17.32
2019-03-22T11:08:13.327Z,17.29
2019-03-22T11:09:13.297Z,17.23
2019-03-22T11:10:13.703Z,17.29
2019-03-22T11:11:13.276Z,17.41
2019-03-22T11:12:13.266Z,17.47
2019-03-22T11:13:13.280Z,17.47
2019-03-22T11:14:13.239Z,17.50
2019-03-22T11:15:13.240Z,17.44
2019-03-22T11:16:13.238Z,17.48
2019-03-22T11:17:13.211Z,17.51
2019-03-22T11:18:13.202Z,17.59
2019-03-22T11:19:13.204Z,17.66
2019-03-22T11:20:13.182Z,17.67
2019-03-22T11:21:13.167Z,17.69
2019-03-22T11:22:13.158Z,17.76
2019-03-22T11:23:13.143Z,17.76
2019-03-22T11:24:13.158Z,17.78
2019-03-22T11:25:13.121Z,17.79
2019-03-22T11:26:13.114Z,17.78
2019-03-22T11:27:13.825Z,17.69
2019-03-22T11:28:13.089Z,17.67
2019-03-22T11:29:13.097Z,17.78
2019-03-22T11:30:13.070Z,17.76
2019-03-22T11:31:13.056Z,17.79
2019-03-22T11:32:13.122Z,17.70
2019-03-22T11:33:13.039Z,17.82
2019-03-22T11:34:13.043Z,17.85
2019-03-22T11:35:13.021Z,17.84
2019-03-22T11:36:13.014Z,18.04
2019-03-22T11:37:12.996Z,18.06
2019-03-22T11:38:12.985Z,18.18
2019-03-22T11:39:15.909Z,18.19
2019-03-22T11:40:12.959Z,18.10
2019-03-22T11:41:12.986Z,18.10
2019-03-22T11:42:12.945Z,18.10
2019-03-22T11:43:13.015Z,18.09
2019-03-22T11:44:12.968Z,18.09
2019-03-22T11:45:12.930Z,18.12
2019-03-22T11:46:12.899Z,18.00
2019-03-22T11:47:13.823Z,18.03
2019-03-22T11:48:12.880Z,18.07
2019-03-22T11:49:12.882Z,18.13
2019-03-22T11:50:12.856Z,18.24
2019-03-22T11:51:12.851Z,18.21
2019-03-22T11:52:12.839Z,18.25
2019-03-22T11:53:12.819Z,18.19
2019-03-22T11:54:12.811Z,18.21
2019-03-22T11:55:13.336Z,18.22
2019-03-22T11:56:12.791Z,18.25
2019-03-22T11:57:12.793Z,18.21
2019-03-22T11:58:12.764Z,18.31
2019-03-22T11:59:12.759Z,18.44
2019-03-22T12:00:12.764Z,18.43
2019-03-22T12:01:20.308Z,18.40
2019-03-22T12:02:22.126Z,18.43
2019-03-22T12:03:13.710Z,18.44
2019-03-22T12:04:12.701Z,18.47
2019-03-22T12:05:12.710Z,18.50
2019-03-22T12:06:12.682Z,18.49
2019-03-22T12:07:12.704Z,18.62
2019-03-22T12:08:12.660Z,18.62
2019-03-22T12:09:12.654Z,18.62
2019-03-22T12:10:12.677Z,18.73
2019-03-22T12:11:12.626Z,18.64
2019-03-22T12:12:12.616Z,18.68
2019-03-22T12:13:12.602Z,18.64
2019-03-22T12:14:12.599Z,18.73
2019-03-22T12:15:12.610Z,18.67
2019-03-22T12:16:12.574Z,18.76
2019-03-22T12:17:12.560Z,18.83
2019-03-22T12:18:12.557Z,18.91
2019-03-22T12:19:12.539Z,18.87
2019-03-22T12:20:12.580Z,18.90
2019-03-22T12:21:12.516Z,18.91
2019-03-22T12:22:12.504Z,18.99
2019-03-22T12:23:12.506Z,19.05
2019-03-22T12:24:12.511Z,19.10
2019-03-22T12:25:12.497Z,19.17
2019-03-22T12:26:12.462Z,19.17
2019-03-22T12:27:12.452Z,19.15
2019-03-22T12:28:12.469Z,19.13
2019-03-22T12:29:12.476Z,19.21
2019-03-22T12:30:12.456Z,19.25
2019-03-22T12:31:12.409Z,19.20
2019-03-22T12:32:12.403Z,19.18
2019-03-22T12:33:12.393Z,19.18
2019-03-22T12:34:12.381Z,19.15
2019-03-22T12:35:12.374Z,19.15
2019-03-22T12:36:12.377Z,19.13
2019-03-22T12:37:12.347Z,19.15
2019-03-22T12:38:12.344Z,19.18
2019-03-22T12:39:12.321Z,19.14
2019-03-22T12:40:12.327Z,19.14
2019-03-22T12:41:12.338Z,19.17
2019-03-22T12:42:12.293Z,19.20
2019-03-22T12:43:12.283Z,19.31
2019-03-22T12:44:12.271Z,19.25
2019-03-22T12:45:12.262Z,19.17
2019-03-22T12:46:12.269Z,19.21
2019-03-22T12:47:12.236Z,19.23
2019-03-22T12:48:12.230Z,19.28
2019-03-22T12:49:12.215Z,19.24
2019-03-22T12:50:12.203Z,19.25
2019-03-22T12:51:12.211Z,19.32
2019-03-22T12:52:12.187Z,19.32
2019-03-22T12:53:12.182Z,19.29
2019-03-22T12:54:12.166Z,19.24
2019-03-22T12:55:12.152Z,19.32
2019-03-22T12:56:12.162Z,19.40
2019-03-22T12:57:12.131Z,19.47
2019-03-22T12:58:12.136Z,19.54
2019-03-22T12:59:12.110Z,19.51
2019-03-22T13:00:12.100Z,19.47
2019-03-22T13:01:12.104Z,19.48
2019-03-22T13:02:12.074Z,19.47
2019-03-22T13:03:12.066Z,19.55
2019-03-22T13:04:12.058Z,19.54
2019-03-22T13:05:12.043Z,19.60
2019-03-22T13:06:12.052Z,19.53
2019-03-22T13:07:12.026Z,19.54
2019-03-22T13:08:12.017Z,19.51
2019-03-22T13:09:12.003Z,19.39
2019-03-22T13:10:11.992Z,19.39